Nearby METAR Reports

 

KPBI - West Palm Beach, Florida, USA
Distance from station: NNE 9mi, 14km
Updated: Sun, 05-Apr-2020 10:00pm EDT
Overcast
Overcast
 Wind from N
Wind: N 6 mph , 9 km/h
Temperature: 73°F , 23°C
Dew Point: 70°F , 21°C
Humidity: 89%
Barometer: 30.00 inHg , 1015.9 hPa
Clouds: Overcast
Visibility: 9 miles , 14 km
Cloud details: Few Clouds 1800 ft
Overcast 2400 ft
2020/04/06 02:00 KPBI 060200Z 35005KT 9SM FEW018 OVC024 23/21 A3000 RMK AO2 RAE0159 P0000 T02330211
KBCT - Boca Raton, Florida, USA
Distance from station: SSE 13mi, 21km
Updated: Sun, 05-Apr-2020 9:47pm EDT
Mist, Overcast
Mist, Overcast
 Wind from calm
Wind: Calm
Temperature: 73°F , 23°C
Dew Point: 72°F , 22°C
Humidity: 94%
Barometer: 29.99 inHg , 1015.6 hPa
Summary: Mist
Clouds: Overcast
Visibility: 5 miles , 8 km
Cloud details: Mostly cloudy 4100 ft
Overcast 4700 ft
2020/04/06 01:47 KBCT 060147Z 00000KT 5SM BR BKN041 OVC047 23/22 A2999
 
KPMP - Pompano Beach, Florida, USA
Distance from station: S 22mi, 36km
Updated: Sun, 05-Apr-2020 9:53pm EDT
Overcast
Overcast
 Wind from NNW
Wind: NNW 3 mph , 6 km/h
Temperature: 73°F , 23°C
Dew Point: 72°F , 22°C
Humidity: 94%
Barometer: 29.98 inHg , 1015.2 hPa
Clouds: Overcast
Visibility: 10 miles , 16 km
Cloud details: Mostly cloudy 4100 ft
Mostly cloudy 4900 ft
Overcast 5500 ft
2020/04/06 01:53 KPMP 060153Z AUTO 34003KT 10SM BKN041 BKN049 OVC055 23/22 A2998 RMK AO2 RAE38 SLP154 P0002 T02280217
KFXE - Ft Lauderd/Exec, Florida, USA
Distance from station: S 25mi, 41km
Updated: Sun, 05-Apr-2020 9:53pm EDT
Overcast
Overcast
 Wind from N
Wind: N 3 mph , 6 km/h
Temperature: 73°F , 23°C
Dew Point: 72°F , 22°C
Humidity: 94%
Barometer: 29.98 inHg , 1015.2 hPa
Clouds: Overcast
Visibility: 10 miles , 16 km
Cloud details: Mostly cloudy 3900 ft
Mostly cloudy 4800 ft
Overcast 6500 ft
2020/04/06 01:53 KFXE 060153Z AUTO 36003KT 10SM BKN039 BKN048 OVC065 23/22 A2998 RMK AO2 RAE52 SLP155 P0000 T02280217
 
KFLL - Ft Lauderd/Holly, Florida, USA
Distance from station: S 35mi, 56km
Updated: Sun, 05-Apr-2020 9:53pm EDT
Heavy rain, Mist, Overcast
Heavy rain, Mist, Overcast
 Wind from NNW
Wind: NNW 3 mph , 6 km/h
Temperature: 73°F , 23°C
Dew Point: 72°F , 22°C
Humidity: 94%
Barometer: 29.98 inHg , 1015.2 hPa
Summary: Heavy rain, Mist
Clouds: Overcast
Visibility: 6 miles , 10 km
Cloud details: Mostly cloudy 3700 ft
Overcast 6000 ft
2020/04/06 01:53 KFLL 060153Z 34003KT 6SM +RA BR BKN037 OVC060 23/22 A2998 RMK AO2 RAE00B41 SLP151 P0004 T02330217
KHWO - Hollywood, Florida, USA
Distance from station: S 39mi, 64km
Updated: Sun, 05-Apr-2020 9:53pm EDT
Overcast
Overcast
 Wind from N
Wind: N 3 mph , 6 km/h
Temperature: 75°F , 24°C
Dew Point: 70°F , 21°C
Humidity: 83%
Barometer: 30.00 inHg , 1015.9 hPa
Clouds: Overcast
Visibility: 10 miles , 16 km
Cloud details: Mostly cloudy 3500 ft
Overcast 4400 ft
2020/04/06 01:53 KHWO 060153Z AUTO 35003KT 10SM BKN035 OVC044 24/21 A3000 RMK AO2 RAB19E41 SLP157 P0003 T02440211
 
KSUA - Stuart/Witham, Florida, USA
Distance from station: N 43mi, 69km
Updated: Sun, 05-Apr-2020 9:55pm EDT
Light drizzle, Overcast
Light drizzle, Overcast
 Wind from ENE
Wind: ENE 13 mph , 20 km/h
Temperature: 70°F , 21°C
Dew Point: 64°F , 18°C
Humidity: 83%
Barometer: 30.03 inHg , 1016.9 hPa
Summary: Light Drizzle
Clouds: Overcast
Visibility: 7 miles , 11 km
Cloud details: Partly cloudy 700 ft
Mostly cloudy 1400 ft
Overcast 2000 ft
2020/04/06 01:55 KSUA 060155Z AUTO 06011KT 7SM -DZ SCT007 BKN014 OVC020 21/18 A3003 RMK AO2 P0002
KOPF - Miami/Opa Locka, Florida, USA
Distance from station: S 46mi, 73km
Updated: Sun, 05-Apr-2020 9:53pm EDT
Overcast
Overcast
 Wind from WSW
Wind: WSW 3 mph , 6 km/h
Temperature: 77°F , 25°C
Dew Point: 68°F , 20°C
Humidity: 74%
Barometer: 29.99 inHg , 1015.6 hPa
Clouds: Overcast
Visibility: 10 miles , 16 km
Cloud details: Mostly cloudy 3400 ft
Overcast 4900 ft
2020/04/06 01:53 KOPF 060153Z 25003KT 10SM BKN034 OVC049 25/20 A2999 RMK AO2 RAB18E53 SLP155 P0000 T02500200
 
KMIA - Miami, Florida, USA
Distance from station: S 54mi, 86km
Updated: Sun, 05-Apr-2020 9:53pm EDT
Mostly cloudy
Mostly cloudy
 Wind from S
Wind: S 6 mph , 9 km/h
Temperature: 79°F , 26°C
Dew Point: 66°F , 19°C
Humidity: 65%
Barometer: 29.98 inHg , 1015.2 hPa
Clouds: Mostly cloudy
Visibility: 10 miles , 16 km
Cloud details: Few Clouds 3600 ft
Mostly cloudy 6500 ft
Mostly cloudy 11000 ft
Mostly cloudy 25000 ft
2020/04/06 01:53 KMIA 060153Z 19005KT 10SM FEW036 BKN065 BKN110 BKN250 26/19 A2998 RMK AO2 RAB29E41 SLP152 P0000 T02560194
KOBE - Okeechobee Cty, Florida, USA
Distance from station: NW 64mi, 104km
Updated: Sun, 05-Apr-2020 9:55pm EDT
Light drizzle, Overcast
Light drizzle, Overcast
 Wind from NE
Wind: NE 7 mph , 11 km/h
Temperature: 64°F , 18°C
Dew Point: 63°F , 17°C
Humidity: 94%
Barometer: 30.03 inHg , 1016.9 hPa
Summary: Light Drizzle
Clouds: Overcast
Visibility: 10 miles , 16 km
Cloud details: Mostly cloudy 900 ft
Mostly cloudy 1600 ft
Overcast 4200 ft
2020/04/06 01:55 KOBE 060155Z AUTO 05006KT 10SM -DZ BKN009 BKN016 OVC042 18/17 A3003 RMK AO2 P0001
 
KFPR - Fort Pierce, Florida, USA
Distance from station: NNW 66mi, 106km
Updated: Sun, 05-Apr-2020 9:53pm EDT
Light rain, Mist, Overcast
Light rain, Mist, Overcast
 Wind from E
Wind: E 12 mph , 19 km/h
Temperature: 68°F , 20°C
Dew Point: 64°F , 18°C
Humidity: 88%
Barometer: 30.03 inHg , 1016.9 hPa
Summary: Light rain, Mist
Clouds: Overcast
Visibility: 6 miles , 10 km
Cloud details: Few Clouds 1800 ft
Mostly cloudy 2800 ft
Overcast 5000 ft
2020/04/06 01:53 KFPR 060153Z AUTO 08010KT 6SM -RA BR FEW018 BKN028 OVC050 20/18 A3003 RMK AO2 SLP168 P0002 T02000183
KTMB - Miami/Tamiami, Florida, USA
Distance from station: SSW 66mi, 106km
Updated: Sun, 05-Apr-2020 9:53pm EDT
Mostly cloudy
Mostly cloudy
 Wind from calm
Wind: Calm
Temperature: 77°F , 25°C
Dew Point: 66°F , 19°C
Humidity: 69%
Barometer: 29.98 inHg , 1015.2 hPa
Clouds: Mostly cloudy
Visibility: 10 miles , 16 km
Cloud details: Mostly cloudy 8000 ft
2020/04/06 01:53 KTMB 060153Z 00000KT 10SM BKN080 25/19 A2998 RMK AO2 SLP151 T02500194
 
KVRB - Vero Beach, Florida, USA
Distance from station: NNW 76mi, 123km
Updated: Sun, 05-Apr-2020 9:53pm EDT
Light rain, Mist, Overcast
Light rain, Mist, Overcast
 Wind from ENE
Wind: ENE 10 mph , 17 km/h
Temperature: 68°F , 20°C
Dew Point: 64°F , 18°C
Humidity: 88%
Barometer: 30.03 inHg , 1016.9 hPa
Summary: Light rain, Mist
Clouds: Overcast
Visibility: 4 miles , 6 km
Cloud details: Few Clouds 700 ft
Mostly cloudy 3200 ft
Overcast 5000 ft
2020/04/06 01:53 KVRB 060153Z AUTO 06009KT 4SM -RA BR FEW007 BKN032 OVC050 20/18 A3003 RMK AO2 SLP168 P0007 T02000183 $
KHST - Homestead Afb, Florida, USA
Distance from station: S 77mi, 124km
Updated: Sun, 05-Apr-2020 9:56pm EDT
Partly cloudy
Partly cloudy
 Wind from calm
Wind: Calm
Temperature: 73°F , 23°C
Dew Point: 68°F , 20°C
Humidity: 83%
Barometer: 29.96 inHg , 1014.6 hPa
Clouds: Partly cloudy
Visibility: 10 miles , 16 km
Cloud details: Partly cloudy 14000 ft
2020/04/06 01:56 KHST 060156Z AUTO 00000KT 10SM SCT140 23/20 A2996 RMK AO2 SLP149 T02320195
 
KIMM - Immokalee, Florida, USA
Distance from station: W 77mi, 124km
Updated: Sun, 05-Apr-2020 9:55pm EDT
Overcast
Overcast
 Wind from NNE
Wind: NNE 9 mph , 15 km/h
Temperature: 68°F , 20°C
Dew Point: 64°F , 18°C
Humidity: 88%
Barometer: 30.01 inHg , 1016.3 hPa
Clouds: Overcast
Visibility: 10 miles , 16 km
Cloud details: Mostly cloudy 800 ft
Overcast 1100 ft
2020/04/06 01:55 KIMM 060155Z AUTO 03008KT 10SM BKN008 OVC011 20/18 A3001 RMK AO2
MYGF - Freeport Intl A, Bahamas
Distance from station: E 90mi, 145km
Updated: Sun, 05-Apr-2020 8:00pm EDT
NOT Current
Rain showers, Overcast
Rain showers, Overcast
 Wind from ENE
Wind: ENE 10 mph , 17 km/h
Temperature: 68°F , 20°C
Dew Point: 64°F , 18°C
Humidity: 88%
Barometer: 30.01 inHg , 1016.3 hPa
Summary: Rain Showers
Clouds: Overcast
Visibility: 4 miles , 7 km
Cloud details: Partly cloudy 1500 ft
Mostly cloudy 2000 ft
Overcast 8000 ft
2020/04/06 00:00 MYGF 060000Z 07009KT 7000 SHRA SCT015CB BKN020 OVC080 20/18 A3001
 
KSEF - Sebring, Florida, USA
Distance from station: NW 95mi, 153km
Updated: Sun, 05-Apr-2020 9:55pm EDT
Overcast
Overcast
 Wind from NE
Wind: NE 7 mph , 11 km/h
Temperature: 64°F , 18°C
Dew Point: 63°F , 17°C
Humidity: 94%
Barometer: 30.04 inHg , 1017.3 hPa
Clouds: Overcast
Visibility: 10 miles , 16 km
Cloud details: Overcast 500 ft
2020/04/06 01:55 KSEF 060155Z AUTO 04006KT 10SM OVC005 18/17 A3004 RMK AO2 T01760171
KRSW - Fort Myers, Florida, USA
Distance from station: W 98mi, 158km
Updated: Sun, 05-Apr-2020 9:53pm EDT
Overcast
Overcast
 Wind from NE
Wind: NE 8 mph , 13 km/h
Temperature: 66°F , 19°C
Dew Point: 64°F , 18°C
Humidity: 94%
Barometer: 30.01 inHg , 1016.3 hPa
Clouds: Overcast
Visibility: 10 miles , 16 km
Cloud details: Overcast 1000 ft
2020/04/06 01:53 KRSW 060153Z 04007KT 10SM OVC010 19/18 A3001 RMK AO2 RAB0055E40 SLP160 P0000 T01890178